TimeHST,TemperatureF,Dew PointF,Humidity,Sea Level PressureIn,VisibilityMPH,Wind Direction,Wind SpeedMPH,Gust SpeedMPH,PrecipitationIn,Events,Conditions,WindDirDegrees,DateUTC
12:53 AM,75.0,59.0,57,30.08,10.0,NNE,6.9,-,N/A,,Clear,20,2013-04-18 10:53:00
1:53 AM,75.0,60.1,60,30.06,10.0,Calm,Calm,-,N/A,,Clear,0,2013-04-18 11:53:00
2:53 AM,73.0,59.0,61,30.04,10.0,SE,5.8,-,N/A,,Clear,130,2013-04-18 12:53:00
3:53 AM,73.0,60.1,64,30.04,10.0,SSE,3.5,-,N/A,,Clear,160,2013-04-18 13:53:00
4:53 AM,72.0,60.1,66,30.05,10.0,SE,6.9,-,N/A,,Clear,130,2013-04-18 14:53:00
5:53 AM,72.0,60.1,66,30.06,10.0,East,3.5,-,N/A,,Clear,80,2013-04-18 15:53:00
6:53 AM,73.9,59.0,59,30.08,10.0,East,3.5,-,N/A,,Partly Cloudy,80,2013-04-18 16:53:00
7:53 AM,78.1,62.1,58,30.09,10.0,Calm,Calm,-,N/A,,Clear,0,2013-04-18 17:53:00
8:53 AM,79.0,62.1,56,30.10,10.0,WSW,6.9,-,N/A,,Clear,240,2013-04-18 18:53:00
9:53 AM,80.1,64.9,60,30.11,10.0,WSW,8.1,-,N/A,,Clear,250,2013-04-18 19:53:00
10:53 AM,82.0,66.0,58,30.11,10.0,WSW,8.1,-,N/A,,Clear,240,2013-04-18 20:53:00
11:53 AM,82.0,66.9,60,30.10,10.0,WSW,10.4,-,N/A,,Mostly Cloudy,240,2013-04-18 21:53:00
12:53 PM,81.0,66.0,60,30.09,10.0,WSW,10.4,-,N/A,,Overcast,240,2013-04-18 22:53:00
1:53 PM,81.0,66.9,62,30.07,10.0,West,6.9,-,N/A,,Mostly Cloudy,260,2013-04-18 23:53:00
2:53 PM,80.1,66.0,62,30.04,10.0,WSW,6.9,-,N/A,,Overcast,240,2013-04-19 00:53:00
3:53 PM,81.0,64.9,58,30.04,10.0,SW,6.9,-,N/A,,Overcast,230,2013-04-19 01:53:00
4:53 PM,81.0,66.0,60,30.04,10.0,South,5.8,-,N/A,,Overcast,170,2013-04-19 02:53:00
5:53 PM,81.0,63.0,54,30.04,10.0,SSW,6.9,-,N/A,,Mostly Cloudy,200,2013-04-19 03:53:00
6:53 PM,79.0,64.9,62,30.06,10.0,South,6.9,-,N/A,,Overcast,180,2013-04-19 04:53:00
7:53 PM,79.0,64.9,62,30.08,10.0,South,5.8,-,N/A,,Partly Cloudy,170,2013-04-19 05:53:00
8:53 PM,77.0,66.0,69,30.09,10.0,SE,5.8,-,N/A,,Clear,130,2013-04-19 06:53:00
9:53 PM,77.0,63.0,62,30.10,10.0,SE,4.6,-,N/A,,Clear,130,2013-04-19 07:53:00
10:53 PM,75.9,64.0,67,30.10,10.0,ESE,5.8,-,N/A,,Clear,110,2013-04-19 08:53:00
11:53 PM,75.0,64.9,71,30.08,10.0,East,4.6,-,N/A,,Clear,100,2013-04-19 09:53:00